Terminal Aerodrome Forecast
Issued by NWS Cleveland, OH

Home | Current Version | Previous Version | Graphics & Text | Print | Product List | Glossary Off
Versions: 1 2 3 4 5 6 7 8 9 10 11 12 13 14 15 16 17 18 19 20 21 22 23 24

000
FTUS41 KCLE 280700 AAA
TAFERI
TAF AMD
KERI 280715Z 2807/2906 25005KT P6SM VCSH BKN018 OVC060
      TEMPO 2807/2809 31010KT 2SM +SHRA BR OVC008
     FM281000 33012KT 4SM -SHRA BR OVC008
      TEMPO 2810/2814 1SM +SHRA BR OVC012
     FM281800 34014G22KT P6SM VCSH OVC015
     FM290000 32010KT P6SM BKN025=

USA.gov is the U.S. government's official web portal to all federal, state and local government web resources and services.